Strongs, Michigan
Current Conditions -  °F | °C
As of 4:55 PM on Thursday 27 Nov 2014 (Local Time) from KERY Reporting Station
Broken Clouds Broken Clouds  
Wind Chill: -18°   Ceiling: 3600
Heat Index: -10°   Visibility: 10mi
Dew Point: -14°   Wind: 13mph
Humidity: 75%   Direction: 290°WNW
Pressure: 30.25"   Gusts: 17mph
Location:  46.36°N, 84.97°W
Report Text: KERY 272155Z AUTO 29011G15KT 10SM SCT025 BKN036 M10/M14 A3025 RMK AO2 T11021139
Loading
Personal Weather Stations






























Interactive Weather Map New forecast layout! Learn more

10-Day Weather Forecast

Advertisements
Track Severe Weather on mobile